createdAt,value
2022-10-18T00:00:20.919Z,101878.78
2022-10-18T00:02:48.114Z,101881.53
2022-10-18T00:05:16.447Z,101880.69
2022-10-18T00:07:43.686Z,101884.31
2022-10-18T00:10:11.066Z,101882.59
2022-10-18T00:12:38.664Z,101882.59
2022-10-18T00:15:07.681Z,101882.72
2022-10-18T00:17:36.046Z,101896.09
2022-10-18T00:20:03.977Z,101893.28
2022-10-18T00:22:31.441Z,101891.47
2022-10-18T00:24:58.903Z,101895.91
2022-10-18T00:27:26.134Z,101888.66
2022-10-18T00:29:54.203Z,101893.72
2022-10-18T00:32:21.485Z,101897.16
2022-10-18T00:34:48.874Z,101904.09
2022-10-18T00:37:16.239Z,101901.47
2022-10-18T00:39:43.682Z,101906.00
2022-10-18T00:42:19.445Z,101909.47
2022-10-18T00:44:46.589Z,101906.16
2022-10-18T00:47:15.415Z,101904.56
2022-10-18T00:49:53.274Z,101902.88
2022-10-18T00:52:24.497Z,101913.59
2022-10-18T00:54:53.420Z,101915.34
2022-10-18T00:57:20.983Z,101911.69
2022-10-18T00:59:48.455Z,101910.69
2022-10-18T01:02:18.340Z,101911.50
2022-10-18T01:04:47.151Z,101918.53
2022-10-18T01:07:41.838Z,101918.03
2022-10-18T01:10:27.242Z,101911.72
2022-10-18T01:13:25.964Z,101911.44
2022-10-18T01:16:11.830Z,101906.13
2022-10-18T01:18:49.097Z,101912.31
2022-10-18T01:21:32.741Z,101897.19
2022-10-18T01:24:30.795Z,101909.13
2022-10-18T01:27:21.141Z,101910.00
2022-10-18T01:30:17.624Z,101898.69
2022-10-18T01:32:54.265Z,101899.53
2022-10-18T01:35:44.758Z,101901.06
2022-10-18T01:38:17.073Z,101904.31
2022-10-18T01:40:47.507Z,101899.56
2022-10-18T01:43:15.902Z,101903.81
2022-10-18T01:45:43.210Z,101902.91
2022-10-18T01:48:11.381Z,101902.81
2022-10-18T01:50:38.572Z,101914.19
2022-10-18T01:53:05.769Z,101908.84
2022-10-18T01:55:39.945Z,101910.59
2022-10-18T01:58:17.567Z,101907.00
2022-10-18T02:00:44.953Z,101910.47
2022-10-18T02:03:23.389Z,101911.31
2022-10-18T02:05:59.118Z,101912.19
2022-10-18T02:08:51.733Z,101901.66
2022-10-18T02:11:19.178Z,101907.81
2022-10-18T02:13:55.747Z,101906.78
2022-10-18T02:16:28.536Z,101906.00
2022-10-18T02:19:02.484Z,101906.84
2022-10-18T02:21:30.527Z,101906.78
2022-10-18T02:23:58.613Z,101910.59
2022-10-18T02:26:26.299Z,101916.78
2022-10-18T02:28:53.668Z,101922.84
2022-10-18T02:31:21.842Z,101922.69
2022-10-18T02:34:15.105Z,101924.28
2022-10-18T02:36:50.005Z,101930.69
2022-10-18T02:39:23.548Z,101929.03
2022-10-18T02:41:50.781Z,101925.50
2022-10-18T02:44:18.040Z,101936.97
2022-10-18T02:46:45.726Z,101928.03
2022-10-18T02:49:12.940Z,101928.97
2022-10-18T02:51:40.137Z,101927.31
2022-10-18T02:54:08.410Z,101924.56
2022-10-18T02:56:36.300Z,101930.59
2022-10-18T02:59:05.025Z,101934.94
2022-10-18T03:01:33.141Z,101940.78
2022-10-18T03:04:00.662Z,101964.03
2022-10-18T03:06:27.865Z,101965.34
2022-10-18T03:08:55.289Z,101960.63
2022-10-18T03:11:22.813Z,101952.78
2022-10-18T03:13:51.225Z,101954.59
2022-10-18T03:16:18.537Z,101934.50
2022-10-18T03:18:45.876Z,101942.63
2022-10-18T03:21:13.084Z,101944.78
2022-10-18T03:23:42.191Z,101940.19
2022-10-18T03:26:09.496Z,101938.53
2022-10-18T03:28:36.777Z,101935.91
2022-10-18T03:31:05.187Z,101935.13
2022-10-18T03:33:33.124Z,101936.22
2022-10-18T03:36:00.376Z,101955.59
2022-10-18T03:38:27.942Z,101946.56
2022-10-18T03:40:55.160Z,101944.66
2022-10-18T03:43:22.643Z,101945.44
2022-10-18T03:45:49.961Z,101943.84
2022-10-18T03:48:17.172Z,101939.59
2022-10-18T03:50:44.746Z,101942.19
2022-10-18T03:53:16.384Z,101939.66
2022-10-18T03:55:43.622Z,101944.22
2022-10-18T03:58:11.013Z,101948.59
2022-10-18T04:00:38.362Z,101941.69
2022-10-18T04:03:05.836Z,101939.22
2022-10-18T04:05:34.413Z,101943.69
2022-10-18T04:08:01.620Z,101951.94
2022-10-18T04:10:28.919Z,101951.00
2022-10-18T04:12:56.139Z,101950.88
2022-10-18T04:15:23.411Z,101949.81
2022-10-18T04:17:50.630Z,101944.41
2022-10-18T04:20:18.035Z,101938.22
2022-10-18T04:22:45.241Z,101933.88
2022-10-18T04:25:12.449Z,101936.50
2022-10-18T04:27:40.780Z,101931.31
2022-10-18T04:30:08.385Z,101939.44
2022-10-18T04:32:35.774Z,101944.94
2022-10-18T04:35:04.043Z,101939.72
2022-10-18T04:37:31.743Z,101942.63
2022-10-18T04:39:59.116Z,101939.13
2022-10-18T04:42:26.396Z,101934.69
2022-10-18T04:44:53.585Z,101938.97
2022-10-18T04:47:20.827Z,101940.56
2022-10-18T04:49:48.025Z,101945.03
2022-10-18T04:52:15.319Z,101935.16
2022-10-18T04:54:42.529Z,101932.44
2022-10-18T04:57:09.934Z,101930.63
2022-10-18T04:59:37.393Z,101928.84
2022-10-18T05:02:05.094Z,101926.31
2022-10-18T05:04:32.332Z,101926.53
2022-10-18T05:06:59.708Z,101925.72
2022-10-18T05:09:27.035Z,101916.00
2022-10-18T05:11:54.230Z,101920.34
2022-10-18T05:14:21.440Z,101915.88
2022-10-18T05:16:48.673Z,101925.66
2022-10-18T05:19:15.906Z,101930.28
2022-10-18T05:21:44.084Z,101925.94
2022-10-18T05:24:12.445Z,101924.19
2022-10-18T05:26:39.656Z,101925.31
2022-10-18T05:29:07.345Z,101931.81
2022-10-18T05:31:34.659Z,101927.56
2022-10-18T05:34:02.216Z,101936.63
2022-10-18T05:36:29.432Z,101935.75
2022-10-18T05:38:58.655Z,101933.16
2022-10-18T05:41:28.228Z,101929.63
2022-10-18T05:43:55.418Z,101939.19
2022-10-18T05:46:22.646Z,101940.09
2022-10-18T05:48:51.402Z,101934.13
2022-10-18T05:51:19.399Z,101929.13
2022-10-18T05:53:46.623Z,101928.50
2022-10-18T05:56:14.404Z,101919.84
2022-10-18T05:58:42.562Z,101920.59
2022-10-18T06:01:10.588Z,101913.59
2022-10-18T06:03:37.799Z,101907.00
2022-10-18T06:06:10.114Z,101915.38
2022-10-18T06:08:38.179Z,101915.38
2022-10-18T06:11:23.512Z,101915.16
2022-10-18T06:13:51.600Z,101917.06
2022-10-18T06:16:22.630Z,101903.13
2022-10-18T06:18:52.509Z,101901.59
2022-10-18T06:21:20.779Z,101898.25
2022-10-18T06:23:52.106Z,101901.00
2022-10-18T06:26:21.855Z,101899.38
2022-10-18T06:28:49.247Z,101902.75
2022-10-18T06:31:16.713Z,101917.44
2022-10-18T06:33:43.957Z,101909.47
2022-10-18T06:36:19.580Z,101918.09
2022-10-18T06:38:46.842Z,101917.00
2022-10-18T06:41:14.093Z,101916.22
2022-10-18T06:43:41.274Z,101923.97
2022-10-18T06:46:09.111Z,101921.25
2022-10-18T06:48:36.952Z,101923.91
2022-10-18T06:51:05.800Z,101923.03
2022-10-18T06:53:40.814Z,101929.91
2022-10-18T06:56:13.305Z,101936.09
2022-10-18T06:58:41.097Z,101942.88
2022-10-18T07:01:13.780Z,101948.16
2022-10-18T07:03:48.151Z,101955.56
2022-10-18T07:06:17.678Z,101953.47
2022-10-18T07:08:45.698Z,101950.56
2022-10-18T07:11:25.575Z,101961.38
2022-10-18T07:13:55.357Z,101971.03
2022-10-18T07:16:22.608Z,101970.97
2022-10-18T07:19:23.199Z,101975.34
2022-10-18T07:21:51.480Z,101983.00
2022-10-18T07:24:18.722Z,101981.91
2022-10-18T07:26:45.981Z,101988.91
2022-10-18T07:29:13.447Z,101986.09
2022-10-18T07:31:41.116Z,101982.47
2022-10-18T07:34:11.009Z,101986.03
2022-10-18T07:36:45.378Z,101985.00
2022-10-18T07:39:12.569Z,101980.44
2022-10-18T07:41:39.908Z,101979.38
2022-10-18T07:44:09.988Z,101987.09
2022-10-18T07:46:37.279Z,101977.63
2022-10-18T07:49:04.751Z,101983.94
2022-10-18T07:51:48.955Z,101987.66
2022-10-18T07:54:18.277Z,101982.34
2022-10-18T07:56:46.461Z,101981.56
2022-10-18T07:59:45.129Z,101985.97
2022-10-18T08:02:14.834Z,101982.25
2022-10-18T08:04:42.080Z,101975.94
2022-10-18T08:07:09.321Z,101978.34
2022-10-18T08:09:36.549Z,101986.31
2022-10-18T08:12:06.313Z,101980.94
2022-10-18T08:14:33.681Z,101981.00
2022-10-18T08:17:06.019Z,101982.81
2022-10-18T08:19:33.238Z,101980.06
2022-10-18T08:22:02.262Z,101985.13
2022-10-18T08:24:43.869Z,101980.78
2022-10-18T08:27:12.969Z,101982.97
2022-10-18T08:29:56.507Z,101982.00
2022-10-18T08:32:33.576Z,101983.78
2022-10-18T08:35:05.671Z,101982.03
2022-10-18T08:38:00.353Z,101976.72
2022-10-18T08:40:27.911Z,101978.00
2022-10-18T08:43:23.279Z,101980.53
2022-10-18T08:46:00.150Z,101979.72
2022-10-18T08:49:04.489Z,101985.91
2022-10-18T08:51:58.141Z,101975.22
2022-10-18T08:55:01.180Z,101975.22
2022-10-18T08:57:29.025Z,101975.22
2022-10-18T08:59:56.469Z,101980.44
2022-10-18T09:03:02.824Z,101983.06
2022-10-18T09:05:48.132Z,101980.53
2022-10-18T09:08:55.426Z,101981.31
2022-10-18T09:12:01.057Z,101986.75
2022-10-18T09:57:55.622Z,101986.34
2022-10-18T10:03:51.605Z,101988.91
2022-10-18T10:09:22.452Z,101984.44
2022-10-18T10:11:51.876Z,101988.78
2022-10-18T10:14:27.354Z,101989.06
2022-10-18T10:17:05.766Z,101980.09
2022-10-18T10:19:37.774Z,101979.13
2022-10-18T10:22:08.918Z,101968.34
2022-10-18T10:24:53.268Z,101978.84
2022-10-18T10:27:24.919Z,101978.13
2022-10-18T10:29:57.665Z,101978.13
2022-10-18T10:32:28.987Z,101969.28
2022-10-18T10:34:56.451Z,101969.03
2022-10-18T10:37:23.569Z,101958.31
2022-10-18T10:40:20.516Z,101953.72
2022-10-18T10:43:18.271Z,101953.09
2022-10-18T10:46:06.659Z,101951.13
2022-10-18T10:49:09.536Z,101950.06
2022-10-18T10:51:42.111Z,101948.13
2022-10-18T10:54:22.048Z,101935.16
2022-10-18T10:57:00.482Z,101930.69
2022-10-18T10:59:34.103Z,101943.16
2022-10-18T11:02:20.622Z,101949.00
2022-10-18T11:04:56.041Z,101956.78
2022-10-18T11:07:43.529Z,101949.06
2022-10-18T11:10:19.707Z,101950.19
2022-10-18T11:13:05.626Z,101951.38
2022-10-18T11:15:52.133Z,101947.53
2022-10-18T11:18:38.632Z,101943.03
2022-10-18T11:21:10.865Z,101947.88
2022-10-18T11:23:39.521Z,101940.56
2022-10-18T11:26:12.749Z,101942.41
2022-10-18T11:28:59.063Z,101946.88
2022-10-18T11:31:59.670Z,101937.75
2022-10-18T11:35:04.386Z,101936.63
2022-10-18T11:37:50.907Z,101943.00
2022-10-18T11:40:35.005Z,101947.88
2022-10-18T11:43:14.151Z,101945.28
2022-10-18T11:46:00.036Z,101943.41
2022-10-18T11:49:11.947Z,101927.91
2022-10-18T11:52:08.237Z,101937.19
2022-10-18T11:54:47.823Z,101929.69
2022-10-18T11:57:47.125Z,101935.03
2022-10-18T12:00:20.112Z,101933.25
2022-10-18T12:03:00.943Z,101933.78
2022-10-18T12:05:30.062Z,101931.03
2022-10-18T12:08:14.022Z,101935.47
2022-10-18T12:11:03.863Z,101931.84
2022-10-18T12:13:41.068Z,101928.38
2022-10-18T12:16:09.602Z,101928.53
2022-10-18T12:18:45.840Z,101934.28
2022-10-18T12:21:13.946Z,101930.63
2022-10-18T12:23:49.919Z,101929.69
2022-10-18T12:26:21.756Z,101921.38
2022-10-18T12:29:10.759Z,101910.38
2022-10-18T12:31:39.123Z,101913.59
2022-10-18T12:34:21.250Z,101923.09
2022-10-18T12:37:09.656Z,101921.38
2022-10-18T12:40:09.082Z,101919.28
2022-10-18T12:42:42.615Z,101918.31
2022-10-18T12:45:28.212Z,101910.16
2022-10-18T12:48:00.584Z,101905.56
2022-10-18T12:50:37.682Z,101902.75
2022-10-18T12:53:10.660Z,101906.84
2022-10-18T12:55:39.923Z,101902.53
2022-10-18T12:58:23.541Z,101896.75
2022-10-18T13:01:12.328Z,101907.28
2022-10-18T13:03:56.975Z,101904.56
2022-10-18T13:06:24.529Z,101899.38
2022-10-18T13:09:18.719Z,101904.38
2022-10-18T13:11:45.999Z,101904.38
2022-10-18T13:14:48.342Z,101903.09
2022-10-18T13:17:45.459Z,101901.09
2022-10-18T13:20:27.717Z,101901.09
2022-10-18T13:23:24.031Z,101901.09
2022-10-18T13:26:17.370Z,101913.09
2022-10-18T13:28:57.198Z,101901.16
2022-10-18T13:31:35.806Z,101909.09
2022-10-18T13:34:23.054Z,101907.78
2022-10-18T13:36:58.339Z,101909.66
2022-10-18T13:39:26.277Z,101905.66
2022-10-18T13:41:57.778Z,101908.97
2022-10-18T13:44:39.937Z,101897.94
2022-10-18T13:47:07.032Z,101904.50
2022-10-18T13:49:40.345Z,101906.13
2022-10-18T13:52:43.663Z,101909.56
2022-10-18T13:55:50.759Z,101916.28
2022-10-18T13:58:41.121Z,101909.09
2022-10-18T14:01:17.873Z,101921.97
2022-10-18T14:04:21.995Z,101916.09
2022-10-18T14:06:49.391Z,101923.66
2022-10-18T14:09:26.350Z,101917.38
2022-10-18T14:12:26.606Z,101930.41
2022-10-18T14:15:19.190Z,101927.78
2022-10-18T14:18:13.951Z,101936.16
2022-10-18T14:21:01.282Z,101934.31
2022-10-18T14:23:35.849Z,101937.16
2022-10-18T14:26:20.645Z,101941.63
2022-10-18T14:29:16.267Z,101937.53
2022-10-18T14:31:53.713Z,101940.88
2022-10-18T14:34:21.503Z,101940.16
2022-10-18T14:36:49.957Z,101937.69
2022-10-18T14:39:29.004Z,101940.59
2022-10-18T14:41:57.702Z,101943.78
2022-10-18T14:44:30.312Z,101945.72
2022-10-18T14:47:01.405Z,101946.31
2022-10-18T14:49:29.243Z,101946.13
2022-10-18T14:52:00.770Z,101942.06
2022-10-18T14:54:33.571Z,101942.50
2022-10-18T14:57:02.606Z,101947.81
2022-10-18T14:59:40.651Z,101937.63
2022-10-18T15:02:22.851Z,101933.38
2022-10-18T15:05:05.513Z,101937.19
2022-10-18T15:07:33.708Z,101938.22
2022-10-18T15:10:02.840Z,101940.06
2022-10-18T15:12:36.822Z,101935.31
2022-10-18T15:15:22.693Z,101934.13
2022-10-18T15:17:50.194Z,101941.13
2022-10-18T15:20:26.731Z,101939.31
2022-10-18T15:22:54.400Z,101936.94
2022-10-18T15:25:22.411Z,101941.41
2022-10-18T15:27:57.779Z,101947.03
2022-10-18T15:30:37.817Z,101951.63
2022-10-18T15:33:10.845Z,101950.22
2022-10-18T15:35:39.328Z,101945.88
2022-10-18T15:38:28.359Z,101945.38
2022-10-18T15:40:55.480Z,101941.13
2022-10-18T15:43:29.045Z,101944.03
2022-10-18T15:46:01.731Z,101938.19
2022-10-18T15:48:35.150Z,101948.41
2022-10-18T15:51:07.828Z,101945.09
2022-10-18T15:53:45.687Z,101946.97
2022-10-18T15:56:26.735Z,101946.22
2022-10-18T15:58:59.372Z,101946.56
2022-10-18T16:01:37.751Z,101950.16
2022-10-18T16:04:24.425Z,101950.44
2022-10-18T16:06:51.657Z,101945.22
2022-10-18T16:09:20.906Z,101941.94
2022-10-18T16:11:54.276Z,101937.81
2022-10-18T16:14:24.484Z,101932.69
2022-10-18T16:16:57.082Z,101933.53
2022-10-18T16:19:24.293Z,101943.50
2022-10-18T16:21:52.768Z,101953.34
2022-10-18T16:24:20.323Z,101950.03
2022-10-18T16:26:48.100Z,101951.88
2022-10-18T16:29:21.911Z,101949.44
2022-10-18T16:31:50.808Z,101953.97
2022-10-18T16:34:18.295Z,101949.81
2022-10-18T16:36:45.676Z,101956.13
2022-10-18T16:39:16.323Z,101954.59
2022-10-18T16:41:43.863Z,101959.94
2022-10-18T16:44:11.421Z,101968.91
2022-10-18T16:46:38.816Z,101965.53
2022-10-18T16:49:06.184Z,101971.94
2022-10-18T16:51:33.575Z,101972.16
2022-10-18T16:54:00.879Z,101960.84
2022-10-18T16:56:30.722Z,101975.09
2022-10-18T16:58:58.331Z,101972.69
2022-10-18T17:01:26.239Z,101975.44
2022-10-18T17:03:53.564Z,101969.47
2022-10-18T17:06:29.324Z,101975.84
2022-10-18T17:08:57.028Z,101975.09
2022-10-18T17:11:26.690Z,101973.81
2022-10-18T17:13:54.424Z,101978.38
2022-10-18T17:19:03.614Z,101979.88
2022-10-18T17:21:31.361Z,101986.06
2022-10-18T17:24:00.811Z,101985.38
2022-10-18T17:26:29.642Z,101983.81
2022-10-18T17:29:00.657Z,101995.38
2022-10-18T17:31:29.029Z,101985.75
2022-10-18T17:33:58.295Z,101990.28
2022-10-18T17:36:25.642Z,101987.03
2022-10-18T17:38:54.049Z,101991.53
2022-10-18T17:41:21.624Z,101987.88
2022-10-18T17:43:49.091Z,101983.53
2022-10-18T17:46:17.744Z,101988.97
2022-10-18T17:48:45.239Z,101989.97
2022-10-18T17:51:14.612Z,101989.31
2022-10-18T17:53:42.160Z,101990.56
2022-10-18T17:56:10.861Z,101997.59
2022-10-18T17:58:38.319Z,101995.00
2022-10-18T18:01:13.714Z,101993.44
2022-10-18T18:03:41.524Z,101991.06
2022-10-18T18:06:22.812Z,101996.69
2022-10-18T18:08:50.910Z,101997.63
2022-10-18T18:11:18.419Z,102004.69
2022-10-18T18:13:45.578Z,102008.25
2022-10-18T18:16:22.764Z,102010.13
2022-10-18T18:18:52.415Z,102012.81
2022-10-18T18:21:20.374Z,102011.13
2022-10-18T18:23:47.755Z,102014.75
2022-10-18T18:26:15.861Z,102013.94
2022-10-18T18:28:43.210Z,102007.78
2022-10-18T18:31:24.867Z,102010.47
2022-10-18T18:33:54.040Z,102020.22
2022-10-18T18:36:21.737Z,102018.38
2022-10-18T18:38:53.041Z,102020.97
2022-10-18T18:41:24.894Z,102022.69
2022-10-18T18:43:53.188Z,102021.88
2022-10-18T18:46:21.020Z,102017.53
2022-10-18T18:48:48.780Z,102014.00
2022-10-18T18:51:18.423Z,102012.19
2022-10-18T18:53:46.581Z,102011.38
2022-10-18T18:58:52.956Z,102022.94
2022-10-18T19:01:23.314Z,102021.16
2022-10-18T19:03:52.206Z,102014.06
2022-10-18T19:06:21.732Z,102014.94
2022-10-18T19:08:49.701Z,102029.13
2022-10-18T19:11:20.650Z,102030.06
2022-10-18T19:13:48.913Z,102026.56
2022-10-18T19:16:32.230Z,102029.25
2022-10-18T19:19:15.186Z,102026.69
2022-10-18T19:21:45.488Z,102028.44
2022-10-18T19:24:12.841Z,102032.94
2022-10-18T19:26:47.969Z,102031.22
2022-10-18T19:29:18.948Z,102037.44
2022-10-18T19:31:46.508Z,102018.13
2022-10-18T19:34:14.797Z,102025.16
2022-10-18T19:36:43.896Z,102024.34
2022-10-18T19:39:32.126Z,102031.34
2022-10-18T19:42:03.205Z,102022.69
2022-10-18T19:44:32.351Z,102032.38
2022-10-18T19:46:59.860Z,102030.66
2022-10-18T19:49:28.591Z,102028.13
2022-10-18T19:51:56.514Z,102039.59
2022-10-18T19:54:24.408Z,102051.94
2022-10-18T19:56:51.916Z,102055.47
2022-10-18T19:59:19.232Z,102053.78
2022-10-18T20:01:46.670Z,102060.88
2022-10-18T20:04:17.097Z,102058.28
2022-10-18T20:06:44.632Z,102069.84
2022-10-18T20:09:16.184Z,102064.59
2022-10-18T20:11:46.700Z,102069.06
2022-10-18T20:14:13.869Z,102067.41
2022-10-18T20:16:41.019Z,102061.31
2022-10-18T20:19:08.451Z,102069.31
2022-10-18T20:21:36.177Z,102066.78
2022-10-18T20:24:04.798Z,102074.69
2022-10-18T20:26:32.717Z,102066.94
2022-10-18T20:29:00.073Z,102073.06
2022-10-18T20:31:31.674Z,102080.13
2022-10-18T20:34:00.934Z,102074.94
2022-10-18T20:36:28.704Z,102083.81
2022-10-18T20:38:56.003Z,102084.75
2022-10-18T20:41:26.383Z,102083.03
2022-10-18T20:44:13.387Z,102083.03
2022-10-18T20:46:41.393Z,102087.50
2022-10-18T20:49:10.673Z,102095.34
2022-10-18T20:51:37.775Z,102085.75
2022-10-18T20:54:06.658Z,102084.94
2022-10-18T20:56:35.388Z,102083.13
2022-10-18T20:59:03.093Z,102088.44
2022-10-18T21:01:32.019Z,102090.25
2022-10-18T21:04:01.596Z,102085.81
2022-10-18T21:06:30.843Z,102082.31
2022-10-18T21:08:58.884Z,102090.31
2022-10-18T21:11:27.803Z,102085.06
2022-10-18T21:13:58.811Z,102079.81
2022-10-18T21:16:27.010Z,102074.53
2022-10-18T21:18:54.804Z,102075.41
2022-10-18T21:21:25.599Z,102084.25
2022-10-18T21:23:53.483Z,102074.63
2022-10-18T21:26:26.076Z,102071.09
2022-10-18T21:28:55.186Z,102072.00
2022-10-18T21:31:24.971Z,102071.16
2022-10-18T21:34:04.388Z,102074.66
2022-10-18T21:36:33.871Z,102072.91
2022-10-18T21:39:02.348Z,102073.00
2022-10-18T21:41:30.521Z,102080.91
2022-10-18T21:43:57.765Z,102069.59
2022-10-18T21:46:28.408Z,102065.13
2022-10-18T21:48:56.667Z,102071.22
2022-10-18T21:51:28.045Z,102073.88
2022-10-18T21:53:56.738Z,102066.88
2022-10-18T21:56:26.477Z,102072.16
2022-10-18T21:58:53.898Z,102074.03
2022-10-18T22:01:27.132Z,102078.44
2022-10-18T22:03:55.689Z,102077.66
2022-10-18T22:06:23.762Z,102083.78
2022-10-18T22:08:54.111Z,102075.00
2022-10-18T22:11:30.287Z,102082.09
2022-10-18T22:13:58.101Z,102074.25
2022-10-18T22:16:26.054Z,102074.25
2022-10-18T22:18:56.862Z,102072.53
2022-10-18T22:21:24.083Z,102066.38
2022-10-18T22:23:52.869Z,102062.75
2022-10-18T22:26:33.641Z,102058.22
2022-10-18T22:29:21.098Z,102059.00
2022-10-18T22:31:50.488Z,102059.88
2022-10-18T22:34:23.490Z,102051.09
2022-10-18T22:36:50.918Z,102055.56
2022-10-18T22:39:18.429Z,102050.25
2022-10-18T22:41:46.553Z,102056.22
2022-10-18T22:44:14.555Z,102055.22
2022-10-18T22:46:41.964Z,102053.38
2022-10-18T22:49:09.451Z,102057.63
2022-10-18T22:51:36.680Z,102047.00
2022-10-18T22:54:04.018Z,102040.81
2022-10-18T22:56:31.172Z,102043.50
2022-10-18T22:58:58.387Z,102043.50
2022-10-18T23:01:25.583Z,102041.59
2022-10-18T23:03:57.408Z,102038.03
2022-10-18T23:06:29.498Z,102045.91
2022-10-18T23:08:57.952Z,102043.25
2022-10-18T23:11:26.692Z,102036.09
2022-10-18T23:13:53.909Z,102028.09
2022-10-18T23:16:21.431Z,102042.09
2022-10-18T23:18:53.458Z,102035.09
2022-10-18T23:21:20.813Z,102029.94
2022-10-18T23:23:48.020Z,102028.91
2022-10-18T23:26:17.238Z,102029.75
2022-10-18T23:28:45.413Z,102029.72
2022-10-18T23:31:18.833Z,102028.81
2022-10-18T23:33:47.806Z,102035.75
2022-10-18T23:36:15.431Z,102040.06
2022-10-18T23:38:43.006Z,102038.22
2022-10-18T23:41:11.813Z,102036.53
2022-10-18T23:43:39.383Z,102038.28
2022-10-18T23:46:06.809Z,102041.66
2022-10-18T23:48:34.282Z,102039.06
2022-10-18T23:51:02.097Z,102038.16
2022-10-18T23:53:29.289Z,102033.75
2022-10-18T23:55:58.938Z,102033.63
2022-10-18T23:58:27.163Z,102045.91
